^^
Saratoga-Weather Station Historical Data
Daily Summary for July 12, 2020 Units:  English    Metric   Both
Daily Weekly Monthly Yearly Custom
  High: Low: Average:
Temperature: 42.8 °F 31.8 °F 38.3 °F
Dew Point: 41.7 °F 30.6 °F 36.3 °F
Humidity: 96% 85% 93%
Wind Speed: 6.9mph 0mph 0.1mph
Wind Gust: 10mph - -
Wind- - SW
Pressure: 30.4 in 30.3 in -
Precipitation: 0.03 in    
Historical Graphs
 
 
Tabular Data for July 12, 2020
Time Temperature Dew Point Pressure Wind Wind Speed Wind Gust Humidity Rainfall Rate (Hourly) solar
00:01 35.1 °F 33.4 °F 30.4 in Calm     94% 0 in 0 W/m2
00:06 34.9 °F 33.3 °F 30.4 in Calm     94% 0 in 0 W/m2
00:11 34.9 °F 33.3 °F 30.4 in Calm   1 mph 94% 0 in 0 W/m2
00:16 34.9 °F 33.1 °F 30.4 in Calm     93% 0 in 0 W/m2
00:21 34.7 °F 33.1 °F 30.4 in Calm   1 mph 94% 0 in 0 W/m2
00:26 34.9 °F 33.3 °F 30.4 in Calm     94% 0 in 0 W/m2
00:31 34.7 °F 33.1 °F 30.4 in Calm     94% 0 in 0 W/m2
00:36 34.7 °F 33.1 °F 30.4 in Calm     94% 0 in 0 W/m2
00:41 34.5 °F 32.7 °F 30.4 in Calm     93% 0 in 0 W/m2
00:46 34.3 °F 32.7 °F 30.4 in Calm   1 mph 94% 0 in 0 W/m2
00:51 34.3 °F 32.7 °F 30.4 in Calm     94% 0 in 0 W/m2
00:56 34.3 °F 32.7 °F 30.4 in Calm   1 mph 94% 0 in 0 W/m2
01:01 34.3 °F 32.7 °F 30.4 in Calm     94% 0 in 0 W/m2
01:06 34.3 °F 32.7 °F 30.4 in Calm     94% 0 in 0 W/m2
01:11 34.3 °F 32.7 °F 30.4 in Calm     94% 0 in 0 W/m2
01:16 34.2 °F 32.5 °F 30.4 in Calm     94% 0 in 0 W/m2
01:21 34.2 °F 32.5 °F 30.4 in Calm     94% 0 in 0 W/m2
01:26 34.2 °F 32.5 °F 30.4 in Calm     94% 0 in 0 W/m2
01:31 34.2 °F 32.5 °F 30.4 in Calm     94% 0 in 0 W/m2
01:36 34.3 °F 32.7 °F 30.4 in Calm   1 mph 94% 0 in 0 W/m2
01:41 34.5 °F 33.3 °F 30.4 in Calm     95% 0 in 0 W/m2
01:46 34.7 °F 33.1 °F 30.4 in Calm   1 mph 94% 0 in 0 W/m2
01:51 34.5 °F 32.9 °F 30.4 in Calm     94% 0 in 0 W/m2
01:56 34.3 °F 32.7 °F 30.4 in Calm     94% 0 in 0 W/m2
02:01 34.3 °F 32.7 °F 30.4 in Calm   1 mph 94% 0 in 0 W/m2
02:06 34.3 °F 32.7 °F 30.4 in Calm     94% 0 in 0 W/m2
02:11 34.3 °F 32.7 °F 30.4 in Calm   1 mph 94% 0 in 0 W/m2
02:16 34.3 °F 32.7 °F 30.4 in Calm     94% 0 in 0 W/m2
02:21 34.3 °F 32.7 °F 30.4 in Calm     94% 0 in 0 W/m2
02:26 34.7 °F 33.1 °F 30.4 in Calm     94% 0 in 0 W/m2
02:31 34.9 °F 33.3 °F 30.4 in Calm     94% 0 in 0 W/m2
02:36 35.1 °F 33.4 °F 30.4 in Calm     94% 0 in 0 W/m2
02:41 35.2 °F 33.6 °F 30.4 in Calm     94% 0 in 0 W/m2
02:46 35.6 °F 34 °F 30.4 in Calm     94% 0 in 0 W/m2
02:51 35.6 °F 33.8 °F 30.4 in Calm     93% 0 in 0 W/m2
02:56 35.4 °F 33.6 °F 30.4 in Calm     93% 0 in 0 W/m2
03:01 35.2 °F 33.4 °F 30.4 in Calm     93% 0 in 0 W/m2
03:06 35.1 °F 32.9 °F 30.4 in Calm     92% 0 in 0 W/m2
03:11 34.9 °F 32.7 °F 30.4 in Calm     92% 0 in 0 W/m2
03:16 34.5 °F 32.4 °F 30.4 in Calm     92% 0 in 0 W/m2
03:21 34.2 °F 32 °F 30.4 in Calm     92% 0 in 0 W/m2
03:26 34.2 °F 32 °F 30.4 in Calm     92% 0 in 0 W/m2
03:31 33.8 °F 32 °F 30.4 in Calm     93% 0 in 0 W/m2
03:36 33.6 °F 31.8 °F 30.4 in Calm     93% 0 in 0 W/m2
03:42 33.4 °F 31.6 °F 30.4 in Calm     93% 0 in 0 W/m2
03:47 33.3 °F 31.5 °F 30.4 in Calm     93% 0 in 0 W/m2
03:52 33.1 °F 31.3 °F 30.4 in Calm     93% 0 in 0 W/m2
03:57 32.7 °F 30.9 °F 30.4 in Calm     93% 0 in 0 W/m2
04:02 32.5 °F 30.7 °F 30.4 in Calm     93% 0 in 0 W/m2
04:07 32.5 °F 30.9 °F 30.4 in Calm     94% 0 in 0 W/m2
04:12 32.4 °F 30.7 °F 30.4 in Calm     94% 0 in 0 W/m2
04:17 32.4 °F 30.7 °F 30.4 in Calm     94% 0 in 0 W/m2
04:22 32.2 °F 30.6 °F 30.4 in Calm     94% 0 in 0 W/m2
04:27 32.4 °F 31.1 °F 30.3 in Calm     95% 0 in 0 W/m2
04:32 32.4 °F 31.1 °F 30.4 in Calm     95% 0 in 0 W/m2
04:37 32.4 °F 31.1 °F 30.3 in Calm     95% 0 in 0 W/m2
04:42 32.4 °F 30.7 °F 30.4 in Calm     94% 0 in 0 W/m2
04:47 32.2 °F 30.6 °F 30.3 in Calm     94% 0 in 0 W/m2
04:52 32 °F 30.7 °F 30.3 in Calm     95% 0 in 0 W/m2
04:57 32.2 °F 30.9 °F 30.3 in Calm     95% 0 in 0 W/m2
05:02 32.2 °F 30.9 °F 30.3 in Calm     95% 0 in 0 W/m2
05:07 32.2 °F 30.9 °F 30.3 in Calm     95% 0 in 0 W/m2
05:12 31.8 °F 30.6 °F 30.3 in Calm     95% 0 in 0 W/m2
05:17 31.8 °F 30.6 °F 30.3 in Calm     95% 0 in 0 W/m2
05:22 31.8 °F 30.6 °F 30.3 in Calm     95% 0 in 0 W/m2
05:27 32.2 °F 30.9 °F 30.3 in Calm     95% 0 in 0 W/m2
05:32 32.4 °F 31.3 °F 30.3 in Calm     96% 0 in 0 W/m2
05:37 32.5 °F 31.5 °F 30.3 in Calm     96% 0 in 0 W/m2
05:42 32.5 °F 31.3 °F 30.3 in Calm     95% 0 in 0 W/m2
05:47 32.5 °F 31.3 °F 30.3 in Calm     95% 0 in 0 W/m2
05:52 32.9 °F 31.8 °F 30.3 in Calm     96% 0 in 0 W/m2
05:57 33.3 °F 32.2 °F 30.3 in Calm     96% 0 in 0 W/m2
06:02 33.3 °F 32 °F 30.4 in Calm     95% 0 in 0 W/m2
06:07 33.1 °F 31.8 °F 30.4 in Calm     95% 0 in 0 W/m2
06:12 32.7 °F 31.5 °F 30.4 in Calm     95% 0 in 0 W/m2
06:17 32.5 °F 31.3 °F 30.4 in Calm     95% 0 in 0 W/m2
06:22 32.7 °F 31.5 °F 30.4 in Calm   1 mph 95% 0 in 0 W/m2
06:27 32.9 °F 31.6 °F 30.4 in Calm     95% 0 in 0 W/m2
06:33 33.1 °F 32 °F 30.4 in Calm     96% 0 in 0 W/m2
06:38 33.4 °F 32.4 °F 30.3 in Calm     96% 0 in 0 W/m2
06:43 33.6 °F 32.5 °F 30.3 in Calm     96% 0 in 0 W/m2
06:48 33.8 °F 32.7 °F 30.3 in Calm     96% 0 in 0 W/m2
06:53 33.6 °F 32.4 °F 30.3 in Calm     95% 0 in 0 W/m2
06:58 33.4 °F 32.2 °F 30.3 in Calm     95% 0 in 0 W/m2
07:03 33.3 °F 32 °F 30.3 in Calm     95% 0 in 0 W/m2
07:08 33.3 °F 32 °F 30.3 in Calm     95% 0 in 0 W/m2
07:13 33.1 °F 31.8 °F 30.3 in Calm     95% 0 in 0 W/m2
07:18 33.3 °F 32.2 °F 30.3 in Calm     96% 0 in 0 W/m2
07:23 33.3 °F 32 °F 30.3 in Calm     95% 0 in 0 W/m2
07:28 33.3 °F 32 °F 30.3 in Calm     95% 0 in 0 W/m2
07:33 33.3 °F 32 °F 30.3 in Calm     95% 0 in 0 W/m2
07:38 33.3 °F 32 °F 30.3 in Calm     95% 0 in 0 W/m2
07:43 33.3 °F 32 °F 30.3 in Calm     95% 0 in 0 W/m2
07:48 33.4 °F 32.2 °F 30.3 in Calm     95% 0 in 0 W/m2
07:54 33.6 °F 32.4 °F 30.3 in Calm     95% 0 in 0 W/m2
07:59 33.6 °F 32.4 °F 30.3 in Calm     95% 0 in 0 W/m2
08:04 33.6 °F 32.4 °F 30.3 in Calm   1 mph 95% 0 in 0 W/m2
08:09 33.8 °F 32.5 °F 30.3 in Calm     95% 0 in 0 W/m2
08:14 33.8 °F 32.5 °F 30.3 in Calm   2 mph 95% 0 in 0 W/m2
08:19 34 °F 32.7 °F 30.3 in Calm     95% 0 in 0 W/m2
08:24 34.2 °F 32.9 °F 30.3 in Calm     95% 0 in 5 W/m2
08:29 34.2 °F 32.9 °F 30.3 in Calm     95% 0 in 5 W/m2
08:34 34.2 °F 32.5 °F 30.3 in Calm     94% 0 in 9 W/m2
08:39 34.3 °F 32.7 °F 30.3 in Calm     94% 0 in 11 W/m2
08:44 34.3 °F 32.7 °F 30.3 in Calm     94% 0 in 12 W/m2
08:49 34.3 °F 32.7 °F 30.3 in Calm     94% 0 in 16 W/m2
08:54 34.5 °F 32.9 °F 30.3 in Calm     94% 0 in 28 W/m2
08:59 34.5 °F 32.9 °F 30.3 in Calm     94% 0 in 23 W/m2
09:04 34.9 °F 33.3 °F 30.3 in Calm     94% 0 in 28 W/m2
09:09 35.1 °F 33.4 °F 30.3 in Calm     94% 0 in 23 W/m2
09:14 35.1 °F 33.3 °F 30.3 in Calm     93% 0 in 28 W/m2
09:19 35.2 °F 33.4 °F 30.3 in Calm     93% 0 in 37 W/m2
09:24 35.4 °F 33.6 °F 30.3 in Calm     93% 0 in 42 W/m2
09:29 35.6 °F 33.8 °F 30.3 in Calm   1 mph 93% 0 in 49 W/m2
09:34 35.8 °F 34 °F 30.3 in Calm     93% 0 in 49 W/m2
09:39 36 °F 33.8 °F 30.3 in Calm   1 mph 92% 0 in 67 W/m2
09:44 36 °F 33.8 °F 30.3 in Calm     92% 0.01 in 69 W/m2
09:50 36.1 °F 34 °F 30.3 in Calm     92% 0.01 in 77 W/m2
09:55 36.3 °F 34.2 °F 30.3 in Calm     92% 0.01 in 88 W/m2
10:00 36.3 °F 34.2 °F 30.3 in Calm     92% 0.01 in 97 W/m2
10:05 36.7 °F 34.3 °F 30.3 in Calm     91% 0.01 in 125 W/m2
10:10 36.9 °F 34.5 °F 30.3 in Calm     91% 0.01 in 132 W/m2
10:15 37 °F 34.7 °F 30.3 in Calm     91% 0.01 in 114 W/m2
10:20 37 °F 34.7 °F 30.3 in Calm     91% 0.01 in 120 W/m2
10:25 37.2 °F 34.5 °F 30.3 in Calm   2 mph 90% 0.01 in 121 W/m2
10:30 37.4 °F 34.7 °F 30.3 in Calm   1 mph 90% 0.01 in 134 W/m2
10:35 37.6 °F 34.9 °F 30.3 in Calm   2 mph 90% 0.01 in 128 W/m2
10:40 37.6 °F 34.9 °F 30.3 in Calm     90% 0 in 104 W/m2
10:46 37.6 °F 34.9 °F 30.3 in Calm     90% 0 in 125 W/m2
10:51 37.8 °F 35.1 °F 30.3 in Calm   1 mph 90% 0 in 109 W/m2
10:56 37.9 °F 35.2 °F 30.3 in Calm     90% 0 in 98 W/m2
11:01 38.1 °F 35.4 °F 30.3 in Calm     90% 0 in 98 W/m2
11:06 38.1 °F 35.4 °F 30.3 in Calm     90% 0 in 72 W/m2
11:11 38.5 °F 35.6 °F 30.3 in Calm     89% 0 in 102 W/m2
11:16 38.5 °F 35.6 °F 30.3 in Calm   1 mph 89% 0 in 100 W/m2
11:21 38.7 °F 35.8 °F 30.3 in Calm     89% 0 in 88 W/m2
11:26 38.8 °F 36 °F 30.3 in Calm     89% 0 in 120 W/m2
11:31 39 °F 35.8 °F 30.3 in Calm   2 mph 88% 0 in 105 W/m2
11:36 39.4 °F 36.1 °F 30.3 in Calm   3 mph 88% 0 in 123 W/m2
11:41 39.6 °F 36.3 °F 30.3 in Calm     88% 0 in 118 W/m2
11:46 39.6 °F 36 °F 30.3 in Calm   1 mph 87% 0 in 97 W/m2
11:51 39.7 °F 36.1 °F 30.3 in Calm   1 mph 87% 0 in 67 W/m2
11:56 39.7 °F 36.1 °F 30.3 in Calm     87% 0 in 105 W/m2
12:01 39.7 °F 36.1 °F 30.3 in Calm   3 mph 87% 0 in 98 W/m2
12:06 39.7 °F 36.1 °F 30.3 in Calm   7 mph 87% 0 in 102 W/m2
12:11 39.9 °F 36.1 °F 30.3 in Calm   1 mph 86% 0 in 91 W/m2
12:16 39.9 °F 36.3 °F 30.3 in Calm   4 mph 87% 0 in 86 W/m2
12:21 39.9 °F 36.3 °F 30.3 in Calm     87% 0 in 116 W/m2
12:26 40.1 °F 36.5 °F 30.3 in Calm   1 mph 87% 0 in 95 W/m2
12:31 40.3 °F 36.7 °F 30.3 in Calm     87% 0 in 90 W/m2
12:36 40.5 °F 36.9 °F 30.3 in Calm   2 mph 87% 0 in 97 W/m2
12:41 40.5 °F 36.9 °F 30.3 in Calm     87% 0 in 107 W/m2
12:46 40.6 °F 37 °F 30.3 in Calm   2 mph 87% 0 in 102 W/m2
12:51 40.8 °F 37 °F 30.3 in NW 4 mph 4 mph 86% 0 in 98 W/m2
12:56 41 °F 37.2 °F 30.3 in Calm   1 mph 86% 0 in 95 W/m2
13:01 41.2 °F 37.4 °F 30.3 in Calm     86% 0 in 98 W/m2
13:06 41.2 °F 37.4 °F 30.3 in Calm   7 mph 86% 0 in 130 W/m2
13:11 41.4 °F 37.6 °F 30.3 in Calm   3 mph 86% 0 in 111 W/m2
13:16 41.5 °F 37.6 °F 30.3 in Calm   2 mph 86% 0 in 123 W/m2
13:21 41.7 °F 37.6 °F 30.3 in Calm   3 mph 85% 0 in 127 W/m2
13:26 41.7 °F 37.6 °F 30.3 in NNE 2.9 mph 6 mph 85% 0 in 123 W/m2
13:31 42.1 °F 37.9 °F 30.3 in Calm   3 mph 85% 0 in 149 W/m2
13:36 42.3 °F 38.1 °F 30.3 in ESE 2 mph 2 mph 85% 0 in 158 W/m2
13:41 42.4 °F 38.3 °F 30.3 in Calm   1 mph 85% 0 in 148 W/m2
13:47 42.4 °F 38.3 °F 30.3 in Calm   5 mph 85% 0 in 142 W/m2
13:52 42.4 °F 38.3 °F 30.3 in NW 2.9 mph 9 mph 85% 0 in 102 W/m2
13:57 42.4 °F 38.3 °F 30.3 in ESE 0.9 mph 5 mph 85% 0 in 105 W/m2
14:02 42.4 °F 38.3 °F 30.3 in Calm   5 mph 85% 0 in 79 W/m2
14:07 42.4 °F 38.3 °F 30.3 in WNW 0.9 mph 8 mph 85% 0 in 86 W/m2
14:12 42.4 °F 38.3 °F 30.3 in South 0.9 mph 10 mph 85% 0 in 70 W/m2
14:17 42.4 °F 38.3 °F 30.3 in NW 2.9 mph 10 mph 85% 0 in 49 W/m2
14:22 42.4 °F 38.3 °F 30.3 in West 0.9 mph 4 mph 85% 0 in 32 W/m2
14:27 42.4 °F 38.3 °F 30.3 in Calm   10 mph 85% 0 in 35 W/m2
14:32 42.4 °F 38.3 °F 30.3 in Calm     85% 0 in 30 W/m2
14:37 42.6 °F 38.5 °F 30.3 in Calm   4 mph 85% 0 in 32 W/m2
14:42 42.6 °F 38.5 °F 30.3 in Calm   5 mph 85% 0 in 37 W/m2
14:47 42.6 °F 38.7 °F 30.3 in SW 0.9 mph 4 mph 86% 0 in 33 W/m2
14:52 42.6 °F 38.7 °F 30.3 in West 6.9 mph 8 mph 86% 0 in 35 W/m2
14:57 42.6 °F 38.7 °F 30.3 in Calm   2 mph 86% 0 in 44 W/m2
15:02 42.6 °F 39 °F 30.3 in Calm   3 mph 87% 0 in 49 W/m2
15:07 42.6 °F 39 °F 30.3 in Calm   1 mph 87% 0 in 69 W/m2
15:12 42.4 °F 39.2 °F 30.3 in Calm   4 mph 88% 0 in 62 W/m2
15:17 42.4 °F 39.4 °F 30.3 in East 2 mph 2 mph 89% 0 in 90 W/m2
15:22 42.4 °F 39.4 °F 30.3 in WSW 2 mph 7 mph 89% 0 in 69 W/m2
15:27 42.3 °F 39.6 °F 30.3 in Calm     90% 0 in 56 W/m2
15:32 42.3 °F 39.6 °F 30.3 in Calm   7 mph 90% 0 in 58 W/m2
15:37 42.3 °F 39.7 °F 30.3 in Calm     91% 0 in 42 W/m2
15:42 42.1 °F 39.6 °F 30.3 in Calm   2 mph 91% 0 in 35 W/m2
15:47 42.1 °F 39.6 °F 30.3 in SW 4 mph 5 mph 91% 0 in 33 W/m2
15:52 41.9 °F 39.7 °F 30.3 in Calm   1 mph 92% 0 in 26 W/m2
15:57 41.9 °F 39.7 °F 30.3 in Calm   5 mph 92% 0 in 21 W/m2
16:02 41.7 °F 39.9 °F 30.3 in Calm   3 mph 93% 0 in 19 W/m2
16:07 41.7 °F 39.9 °F 30.3 in West 4 mph 4 mph 93% 0 in 21 W/m2
16:12 41.7 °F 39.9 °F 30.3 in Calm   1 mph 93% 0 in 16 W/m2
16:17 41.5 °F 39.9 °F 30.3 in Calm   9 mph 94% 0 in 14 W/m2
16:22 41.5 °F 39.9 °F 30.3 in Calm   6 mph 94% 0 in 11 W/m2
16:27 41.5 °F 39.9 °F 30.3 in Calm   9 mph 94% 0 in 7 W/m2
16:32 41.5 °F 39.9 °F 30.3 in WNW 2 mph 2 mph 94% 0.01 in 5 W/m2
16:37 41.5 °F 39.9 °F 30.3 in Calm   7 mph 94% 0.01 in 0 W/m2
16:42 41.5 °F 39.9 °F 30.3 in Calm   2 mph 94% 0.01 in 0 W/m2
16:47 41.5 °F 39.9 °F 30.3 in Calm   3 mph 94% 0.01 in 0 W/m2
16:52 41.4 °F 39.7 °F 30.3 in Calm   1 mph 94% 0.01 in 0 W/m2
16:57 41.4 °F 40.1 °F 30.3 in Calm   3 mph 95% 0.01 in 0 W/m2
17:02 41.4 °F 40.1 °F 30.3 in Calm     95% 0.01 in 0 W/m2
17:07 41.4 °F 40.1 °F 30.3 in Calm     95% 0.01 in 0 W/m2
17:12 41.4 °F 40.1 °F 30.3 in Calm     95% 0.02 in 0 W/m2
17:17 41.4 °F 40.1 °F 30.3 in Calm     95% 0.02 in 0 W/m2
17:22 41.4 °F 40.1 °F 30.3 in Calm     95% 0.02 in 0 W/m2
17:27 41.4 °F 40.1 °F 30.3 in Calm   1 mph 95% 0.01 in 0 W/m2
17:32 41.4 °F 40.1 °F 30.3 in Calm     95% 0.01 in 0 W/m2
17:38 41.5 °F 40.3 °F 30.3 in Calm     95% 0.01 in 0 W/m2
17:43 41.5 °F 40.3 °F 30.3 in Calm     95% 0.01 in 0 W/m2
17:48 41.5 °F 40.3 °F 30.3 in Calm     95% 0.01 in 0 W/m2
17:53 41.5 °F 40.3 °F 30.3 in Calm     95% 0.01 in 0 W/m2
17:58 41.5 °F 40.3 °F 30.3 in Calm   1 mph 95% 0.01 in 0 W/m2
18:03 41.5 °F 40.3 °F 30.3 in Calm     95% 0.01 in 0 W/m2
18:08 41.5 °F 40.3 °F 30.3 in Calm     95% 0.01 in 0 W/m2
18:13 41.7 °F 40.5 °F 30.3 in Calm     95% 0 in 0 W/m2
18:18 41.7 °F 40.5 °F 30.3 in Calm     95% 0 in 0 W/m2
18:23 41.7 °F 40.5 °F 30.3 in Calm     95% 0 in 0 W/m2
18:28 41.7 °F 40.5 °F 30.3 in Calm     95% 0 in 0 W/m2
18:33 41.7 °F 40.5 °F 30.3 in Calm     95% 0 in 0 W/m2
18:38 41.7 °F 40.5 °F 30.3 in Calm     95% 0 in 0 W/m2
18:43 41.9 °F 40.6 °F 30.3 in Calm     95% 0 in 0 W/m2
18:48 41.9 °F 40.6 °F 30.3 in Calm     95% 0 in 0 W/m2
18:53 41.9 °F 40.6 °F 30.3 in Calm     95% 0 in 0 W/m2
18:58 42.1 °F 40.8 °F 30.3 in Calm     95% 0 in 0 W/m2
19:03 42.1 °F 40.8 °F 30.3 in Calm     95% 0.01 in 0 W/m2
19:08 42.1 °F 40.8 °F 30.3 in Calm     95% 0.01 in 0 W/m2
19:13 42.1 °F 40.8 °F 30.3 in Calm     95% 0.01 in 0 W/m2
19:18 42.1 °F 40.8 °F 30.3 in Calm     95% 0.01 in 0 W/m2
19:23 42.1 °F 40.8 °F 30.3 in Calm     95% 0.01 in 0 W/m2
19:28 42.1 °F 40.8 °F 30.3 in Calm     95% 0.01 in 0 W/m2
19:33 42.1 °F 40.8 °F 30.3 in Calm     95% 0.01 in 0 W/m2
19:38 42.1 °F 40.8 °F 30.3 in Calm     95% 0.01 in 0 W/m2
19:43 42.1 °F 40.8 °F 30.3 in Calm     95% 0.01 in 0 W/m2
19:49 42.1 °F 40.8 °F 30.3 in Calm     95% 0.01 in 0 W/m2
19:54 42.1 °F 40.8 °F 30.3 in Calm     95% 0.01 in 0 W/m2
19:59 42.1 °F 40.8 °F 30.3 in Calm     95% 0.01 in 0 W/m2
20:04 42.1 °F 40.8 °F 30.3 in Calm     95% 0 in 0 W/m2
20:09 42.1 °F 40.8 °F 30.3 in Calm   1 mph 95% 0 in 0 W/m2
20:14 42.1 °F 40.8 °F 30.3 in Calm     95% 0 in 0 W/m2
20:19 42.1 °F 40.8 °F 30.3 in Calm   1 mph 95% 0 in 0 W/m2
20:24 42.1 °F 40.8 °F 30.3 in Calm     95% 0 in 0 W/m2
20:29 42.1 °F 40.8 °F 30.3 in Calm     95% 0 in 0 W/m2
20:34 42.1 °F 40.8 °F 30.3 in Calm     95% 0 in 0 W/m2
20:39 42.1 °F 40.8 °F 30.3 in Calm     95% 0 in 0 W/m2
20:44 42.1 °F 40.8 °F 30.3 in Calm     95% 0 in 0 W/m2
20:49 42.1 °F 40.8 °F 30.3 in Calm     95% 0 in 0 W/m2
20:54 42.1 °F 40.8 °F 30.3 in Calm     95% 0 in 0 W/m2
20:59 42.1 °F 40.8 °F 30.3 in Calm     95% 0 in 0 W/m2
21:04 42.1 °F 40.8 °F 30.3 in Calm     95% 0 in 0 W/m2
21:09 42.1 °F 40.8 °F 30.3 in Calm   1 mph 95% 0 in 0 W/m2
21:14 42.1 °F 40.8 °F 30.3 in Calm   1 mph 95% 0 in 0 W/m2
21:19 42.1 °F 40.8 °F 30.3 in Calm     95% 0 in 0 W/m2
21:24 42.1 °F 40.8 °F 30.3 in SW 0.9 mph 1 mph 95% 0 in 0 W/m2
21:29 42.1 °F 41 °F 30.3 in Calm     96% 0 in 0 W/m2
21:34 42.1 °F 41 °F 30.3 in Calm   1 mph 96% 0 in 0 W/m2
21:39 42.1 °F 41 °F 30.3 in Calm     96% 0 in 0 W/m2
21:44 42.3 °F 41.2 °F 30.3 in Calm   1 mph 96% 0 in 0 W/m2
21:49 42.3 °F 41.2 °F 30.3 in Calm     96% 0 in 0 W/m2
21:54 42.3 °F 41.2 °F 30.3 in Calm   1 mph 96% 0 in 0 W/m2
21:59 42.3 °F 41.2 °F 30.3 in Calm     96% 0 in 0 W/m2
22:04 42.3 °F 41.2 °F 30.3 in Calm   5 mph 96% 0 in 0 W/m2
22:09 42.3 °F 41.2 °F 30.3 in Calm     96% 0 in 0 W/m2
22:14 42.3 °F 41.2 °F 30.3 in Calm   4 mph 96% 0 in 0 W/m2
22:19 42.3 °F 41.2 °F 30.3 in Calm     96% 0 in 0 W/m2
22:24 42.4 °F 41.4 °F 30.3 in Calm   1 mph 96% 0 in 0 W/m2
22:29 42.4 °F 41.4 °F 30.3 in Calm   6 mph 96% 0 in 0 W/m2
22:34 42.4 °F 41.4 °F 30.3 in Calm     96% 0 in 0 W/m2
22:39 42.4 °F 41.4 °F 30.3 in Calm   1 mph 96% 0 in 0 W/m2
22:44 42.4 °F 41.4 °F 30.3 in West 0.9 mph 3 mph 96% 0 in 0 W/m2
22:49 42.6 °F 41.5 °F 30.3 in Calm     96% 0 in 0 W/m2
22:54 42.6 °F 41.5 °F 30.3 in Calm     96% 0 in 0 W/m2
22:59 42.6 °F 41.5 °F 30.3 in Calm   3 mph 96% 0 in 0 W/m2
23:05 42.6 °F 41.5 °F 30.3 in Calm     96% 0 in 0 W/m2
23:10 42.6 °F 41.5 °F 30.3 in Calm   1 mph 96% 0 in 0 W/m2
23:15 42.6 °F 41.5 °F 30.3 in Calm   1 mph 96% 0 in 0 W/m2
23:20 42.6 °F 41.5 °F 30.3 in Calm     96% 0 in 0 W/m2
23:25 42.6 °F 41.5 °F 30.3 in Calm     96% 0 in 0 W/m2
23:30 42.6 °F 41.5 °F 30.3 in Calm   3 mph 96% 0 in 0 W/m2
23:35 42.6 °F 41.5 °F 30.3 in Calm     96% 0 in 0 W/m2
23:40 42.6 °F 41.5 °F 30.3 in Calm   3 mph 96% 0 in 0 W/m2
23:45 42.8 °F 41.7 °F 30.3 in Calm     96% 0 in 0 W/m2
23:50 42.8 °F 41.7 °F 30.3 in Calm     96% 0 in 0 W/m2
23:55 42.8 °F 41.7 °F 30.3 in Calm     96% 0 in 0 W/m2
Juneau County Weather
Compliments of Weather Underground - 4 mb